createdAt,value
2023-03-06T00:00:44.455Z,12.20
2023-03-06T00:05:47.612Z,12.07
2023-03-06T00:10:50.146Z,11.93
2023-03-06T00:15:53.046Z,12.07
2023-03-06T00:20:55.632Z,12.35
2023-03-06T00:25:58.176Z,14.13
2023-03-06T00:31:01.324Z,14.73
2023-03-06T00:36:06.075Z,14.18
2023-03-06T00:41:13.134Z,13.98
2023-03-06T00:46:15.575Z,14.38
2023-03-06T00:51:19.942Z,16.17
2023-03-06T00:56:22.539Z,17.27
2023-03-06T01:01:25.053Z,15.80
2023-03-06T01:06:28.562Z,15.80
2023-03-06T01:11:31.433Z,16.13
2023-03-06T01:16:34.122Z,17.48
2023-03-06T01:21:36.619Z,16.00
2023-03-06T01:26:39.176Z,15.65
2023-03-06T01:31:41.739Z,16.10
2023-03-06T01:36:44.396Z,15.00
2023-03-06T01:41:46.925Z,16.15
2023-03-06T01:46:49.464Z,16.80
2023-03-06T01:51:54.773Z,16.17
2023-03-06T01:57:25.533Z,17.48
2023-03-06T02:02:28.261Z,16.77
2023-03-06T02:07:31.707Z,15.98
2023-03-06T02:12:34.291Z,17.30
2023-03-06T02:17:37.425Z,17.48
2023-03-06T02:22:49.169Z,17.27
2023-03-06T02:27:52.715Z,16.70
2023-03-06T02:32:55.979Z,17.88
2023-03-06T02:38:03.158Z,17.63
2023-03-06T02:43:05.965Z,17.13
2023-03-06T02:48:09.672Z,16.33
2023-03-06T02:53:14.142Z,17.63
2023-03-06T02:58:19.900Z,18.00
2023-03-06T03:03:23.389Z,17.73
2023-03-06T03:08:28.552Z,18.08
2023-03-06T03:13:35.681Z,18.23
2023-03-06T03:18:38.641Z,18.83
2023-03-06T03:23:41.836Z,21.88
2023-03-06T05:16:17.422Z,26.33
2023-03-06T05:21:20.416Z,25.10
2023-03-06T05:26:22.975Z,23.02
2023-03-06T05:31:25.479Z,20.67
2023-03-06T05:36:28.104Z,20.83
2023-03-06T05:41:30.967Z,20.98
2023-03-06T05:46:33.427Z,21.70
2023-03-06T05:51:36.581Z,20.13
2023-03-06T05:56:40.269Z,19.50
2023-03-06T06:01:46.490Z,18.88
2023-03-06T06:06:56.283Z,19.42
2023-03-06T06:12:01.914Z,17.17
2023-03-06T06:17:04.863Z,18.00
2023-03-06T06:22:07.290Z,18.92
2023-03-06T06:27:09.745Z,18.52
2023-03-06T06:32:12.248Z,17.35
2023-03-06T06:37:14.738Z,17.80
2023-03-06T06:42:38.894Z,19.45
2023-03-06T06:47:43.703Z,19.13
2023-03-06T06:52:46.544Z,18.25
2023-03-06T06:57:48.921Z,18.10
2023-03-06T07:02:51.556Z,16.13
2023-03-06T07:07:54.040Z,16.52
2023-03-06T07:12:56.873Z,17.40
2023-03-06T07:18:01.004Z,18.65
2023-03-06T07:23:03.519Z,19.52
2023-03-06T07:28:06.281Z,20.50
2023-03-06T07:33:09.337Z,19.65
2023-03-06T07:38:12.178Z,18.40
2023-03-06T07:43:19.496Z,16.77
2023-03-06T07:48:29.609Z,19.08
2023-03-06T07:53:32.900Z,17.37
2023-03-06T07:58:41.342Z,19.60
2023-03-06T08:03:44.272Z,17.83
2023-03-06T08:08:48.408Z,18.27
2023-03-06T08:13:53.070Z,18.98
2023-03-06T08:18:56.449Z,17.60
2023-03-06T08:23:59.462Z,17.35
2023-03-06T08:29:02.791Z,19.15
2023-03-06T08:34:12.966Z,16.58
2023-03-06T08:39:15.505Z,17.13
2023-03-06T08:44:18.076Z,16.80
2023-03-06T08:49:20.733Z,16.30
2023-03-06T08:54:23.223Z,16.85
2023-03-06T08:59:25.757Z,16.13
2023-03-06T09:04:31.354Z,12.60
2023-03-06T09:09:33.872Z,19.70
2023-03-06T09:14:36.284Z,21.65
2023-03-06T09:19:38.855Z,20.27
2023-03-06T09:24:41.387Z,18.10
2023-03-06T09:29:43.882Z,18.55
2023-03-06T09:34:46.336Z,17.53
2023-03-06T09:39:50.321Z,17.42
2023-03-06T09:45:04.279Z,15.85
2023-03-06T09:50:25.354Z,15.17
2023-03-06T09:55:33.000Z,14.52
2023-03-06T10:00:58.390Z,12.87
2023-03-06T10:06:30.469Z,11.93
2023-03-06T10:11:43.832Z,11.40
2023-03-06T10:16:46.547Z,9.57
2023-03-06T10:22:04.316Z,8.38
2023-03-06T10:27:17.073Z,8.40
2023-03-06T10:32:46.097Z,8.77
2023-03-06T10:37:50.424Z,7.30
2023-03-06T10:43:09.390Z,9.38
2023-03-06T10:48:20.343Z,9.05
2023-03-06T10:53:29.442Z,7.73
2023-03-06T10:58:33.576Z,8.50
2023-03-06T11:03:37.181Z,8.52
2023-03-06T11:08:41.149Z,8.00
2023-03-06T11:13:44.751Z,7.10
2023-03-06T11:19:18.028Z,8.20
2023-03-06T11:24:22.797Z,6.70
2023-03-06T11:29:43.613Z,8.02
2023-03-06T11:35:14.140Z,7.30
2023-03-06T11:41:00.140Z,7.68
2023-03-06T11:46:37.199Z,7.00
2023-03-06T11:51:48.442Z,6.13
2023-03-06T11:57:12.990Z,6.57
2023-03-06T12:02:37.950Z,5.57
2023-03-06T12:07:48.799Z,6.22
2023-03-06T12:13:00.568Z,5.87
2023-03-06T12:18:12.253Z,4.30
2023-03-06T12:23:23.654Z,4.85
2023-03-06T12:28:47.338Z,4.30
2023-03-06T12:33:55.712Z,4.38
2023-03-06T12:39:12.966Z,3.63
2023-03-06T12:44:24.173Z,2.55
2023-03-06T12:49:32.980Z,3.33
2023-03-06T12:54:42.022Z,2.95
2023-03-06T12:59:48.876Z,2.47
2023-03-06T13:05:13.053Z,2.77
2023-03-06T13:10:34.888Z,2.15
2023-03-06T13:15:42.852Z,2.20
2023-03-06T13:20:46.370Z,2.00
2023-03-06T13:25:50.540Z,1.50
2023-03-06T13:30:53.450Z,2.13
2023-03-06T13:35:56.964Z,1.83
2023-03-06T13:41:21.147Z,2.28
2023-03-06T13:46:35.657Z,1.80
2023-03-06T13:51:41.176Z,1.90
2023-03-06T13:57:04.322Z,2.33
2023-03-06T14:02:28.592Z,2.05
2023-03-06T14:07:40.377Z,1.90
2023-03-06T14:13:13.341Z,2.05
2023-03-06T14:18:42.700Z,2.58
2023-03-06T14:23:47.451Z,2.20
2023-03-06T14:28:53.034Z,2.03
2023-03-06T14:34:01.286Z,2.75
2023-03-06T14:39:14.123Z,3.72
2023-03-06T14:44:18.368Z,3.42
2023-03-06T14:49:22.590Z,2.60
2023-03-06T14:54:29.772Z,3.22
2023-03-06T14:59:56.614Z,3.50
2023-03-06T15:05:05.732Z,3.78
2023-03-06T15:10:21.666Z,3.70
2023-03-06T15:15:30.750Z,3.73
2023-03-06T15:20:54.076Z,2.00
2023-03-06T15:26:02.361Z,1.42
2023-03-06T15:31:11.049Z,1.60
2023-03-06T15:36:27.947Z,1.98
2023-03-06T15:41:39.025Z,2.30
2023-03-06T15:46:42.354Z,1.92
2023-03-06T15:51:45.028Z,1.30
2023-03-06T15:56:49.943Z,1.23
2023-03-06T16:01:53.366Z,2.10
2023-03-06T16:06:55.982Z,1.77
2023-03-06T16:11:59.710Z,1.92
2023-03-06T16:17:02.321Z,1.67
2023-03-06T16:22:04.799Z,2.20
2023-03-06T16:27:07.385Z,1.67
2023-03-06T16:32:11.882Z,3.00
2023-03-06T16:37:14.521Z,1.95
2023-03-06T16:42:17.898Z,2.30
2023-03-06T16:47:20.390Z,1.97
2023-03-06T16:52:22.950Z,1.50
2023-03-06T16:57:25.624Z,1.80
2023-03-06T17:02:28.108Z,2.35
2023-03-06T17:07:33.325Z,3.10
2023-03-06T17:12:36.250Z,3.70
2023-03-06T17:17:39.100Z,3.17
2023-03-06T17:22:46.487Z,2.60
2023-03-06T17:27:49.148Z,3.30
2023-03-06T17:32:51.661Z,3.50
2023-03-06T17:37:59.013Z,3.30
2023-03-06T17:43:01.637Z,2.58
2023-03-06T17:48:04.345Z,2.65
2023-03-06T17:53:06.938Z,3.10
2023-03-06T17:58:12.091Z,3.67
2023-03-06T18:03:15.031Z,2.60
2023-03-06T18:08:17.489Z,2.60
2023-03-06T18:13:20.354Z,2.78
2023-03-06T18:18:23.655Z,3.63
2023-03-06T18:23:27.032Z,2.83
2023-03-06T18:28:31.020Z,2.33
2023-03-06T18:33:33.617Z,2.25
2023-03-06T18:38:36.146Z,2.28
2023-03-06T18:43:39.319Z,2.10
2023-03-06T18:48:41.841Z,2.25
2023-03-06T18:53:44.591Z,2.27
2023-03-06T18:58:48.520Z,2.03
2023-03-06T19:03:51.065Z,2.05
2023-03-06T19:08:58.931Z,2.00
2023-03-06T19:14:01.934Z,1.70
2023-03-06T19:19:04.485Z,1.57
2023-03-06T19:24:13.406Z,0.90
2023-03-06T19:29:15.924Z,1.70
2023-03-06T19:34:19.060Z,1.10
2023-03-06T19:39:21.604Z,1.30
2023-03-06T19:44:27.201Z,1.20
2023-03-06T19:49:30.432Z,0.90
2023-03-06T19:54:33.264Z,0.77
2023-03-06T19:59:36.007Z,0.80
2023-03-06T20:04:38.827Z,1.00
2023-03-06T20:09:41.409Z,0.67
2023-03-06T20:14:46.296Z,0.80
2023-03-06T20:19:48.783Z,0.70
2023-03-06T20:24:51.369Z,1.10
2023-03-06T20:29:53.968Z,0.85
2023-03-06T20:34:56.448Z,1.30
2023-03-06T20:39:59.082Z,1.63
2023-03-06T20:45:01.599Z,0.85
2023-03-06T20:50:06.433Z,1.15
2023-03-06T20:55:09.467Z,0.90
2023-03-06T21:00:12.424Z,1.13
2023-03-06T21:05:15.034Z,1.17
2023-03-06T21:10:17.703Z,1.30
2023-03-06T21:15:22.783Z,1.00
2023-03-06T21:20:25.220Z,0.95
2023-03-06T21:25:29.136Z,1.30
2023-03-06T21:30:32.890Z,1.00
2023-03-06T21:35:40.916Z,1.73
2023-03-06T21:40:44.916Z,1.33
2023-03-06T21:45:49.344Z,1.20
2023-03-06T21:50:51.991Z,1.20
2023-03-06T22:01:27.186Z,1.35
2023-03-06T22:06:32.036Z,1.05
2023-03-06T22:11:37.519Z,1.10
2023-03-06T22:16:40.129Z,1.47
2023-03-06T22:21:42.957Z,1.52
2023-03-06T22:26:45.469Z,1.42
2023-03-06T22:31:47.958Z,1.30
2023-03-06T22:36:50.748Z,1.63
2023-03-06T22:41:56.256Z,1.10
2023-03-06T22:46:58.690Z,1.50
2023-03-06T22:52:01.179Z,1.80
2023-03-06T22:57:04.602Z,0.88
2023-03-06T23:02:08.347Z,0.80
2023-03-06T23:07:10.957Z,1.27
2023-03-06T23:12:13.444Z,1.60
2023-03-06T23:17:35.036Z,2.05
2023-03-06T23:22:55.893Z,1.98
2023-03-06T23:28:16.763Z,1.90
2023-03-06T23:33:19.528Z,2.23
2023-03-06T23:38:21.913Z,2.15
2023-03-06T23:43:24.445Z,1.90
2023-03-06T23:48:29.797Z,2.20
2023-03-06T23:53:32.259Z,2.45
2023-03-06T23:58:35.566Z,2.47
